Time;durP1;ratioP1;P1;durP2;ratioP2;P2;SDS_P1;SDS_P2;PMS_P1;PMS_P2;Temp;Humidity;BMP_temperature;BMP_pressure;BME280_temperature;BME280_humidity;BME280_pressure;Samples;Min_cycle;Max_cycle;Signal;HPM_P1;HPM_P2
2022/07/02 00:01:00;;;;;;;;;;;;;;;25.90;63.89;101379.84;5055775;28;20020;-84
2022/07/02 00:03:30;;;;;;;;;;;;;;;25.88;63.59;101378.94;5055349;28;20010;-84
2022/07/02 00:05:56;;;;;;;;;;;;;;;25.90;63.65;101384.31;5038571;28;20147;-84
2022/07/02 00:08:23;;;;;;;;;;;;;;;25.89;63.84;101383.44;5055174;28;19921;-84
2022/07/02 00:10:48;;;;;;;;;;;;;;;25.89;63.57;101386.13;5035056;28;19913;-84
2022/07/02 00:13:14;;;;;;;;;;;;;;;25.90;63.28;101385.22;5048663;28;19920;-84
2022/07/02 00:15:39;;;;;;;;;;;;;;;25.90;63.18;101389.69;5038220;28;19943;-83
2022/07/02 00:18:05;;;;;;;;;;;;;;;25.87;63.26;101384.31;5037809;28;19996;-84
2022/07/02 00:20:30;;;;;;;;;;;;;;;25.90;63.59;101387.00;5022138;28;19995;-84
2022/07/02 00:22:56;;;;;;;;;;;;;;;25.89;63.32;101394.16;5055169;28;19939;-84
2022/07/02 00:25:21;;;;;;;;;;;;;;;25.88;63.55;101394.09;5056519;28;19936;-84
2022/07/02 00:27:47;;;;;;;;;;;;;;;25.86;63.72;101385.19;5036577;28;20406;-85
2022/07/02 00:30:12;;;;;;;;;;;;;;;25.84;63.28;101387.84;5039322;28;19924;-84
2022/07/02 00:32:38;;;;;;;;;;;;;;;25.86;63.42;101385.19;5020466;28;20381;-85
2022/07/02 00:35:05;;;;;;;;;;;;;;;25.86;63.34;101391.41;5057536;28;20418;-85
2022/07/02 00:37:30;;;;;;;;;;;;;;;25.86;62.89;101388.75;5055172;28;20320;-85
2022/07/02 00:39:56;;;;;;;;;;;;;;;25.85;63.42;101378.94;5038701;28;19950;-85
2022/07/02 00:42:24;;;;;;;;;;;;;;;25.84;63.28;101382.50;5055229;28;19920;-85
2022/07/02 00:44:49;;;;;;;;;;;;;;;25.82;63.70;101386.06;5037927;28;19919;-85
2022/07/02 00:47:15;;;;;;;;;;;;;;;25.82;63.43;101380.72;5021502;28;20011;-85
2022/07/02 00:49:40;;;;;;;;;;;;;;;25.85;63.11;101386.09;5038253;28;19917;-84
2022/07/02 00:52:06;;;;;;;;;;;;;;;25.84;63.12;101385.16;5035854;28;19924;-85
2022/07/02 00:54:32;;;;;;;;;;;;;;;25.79;63.24;101384.28;5038190;28;19920;-85
2022/07/02 00:56:57;;;;;;;;;;;;;;;25.80;63.51;101381.63;5035509;28;19909;-85
2022/07/02 00:59:23;;;;;;;;;;;;;;;25.82;63.18;101388.75;5052580;28;20050;-85
2022/07/02 01:01:49;;;;;;;;;;;;;;;25.82;63.49;101386.06;5025589;28;20299;-85
2022/07/02 01:04:15;;;;;;;;;;;;;;;25.82;63.38;101386.06;5052598;28;20371;-85
2022/07/02 01:06:41;;;;;;;;;;;;;;;25.83;63.34;101391.44;5052401;28;20461;-85
2022/07/02 01:11:50;;;;;;;;;;;;;;;25.79;63.43;101395.88;5035457;28;20423;-85
2022/07/02 01:14:17;;;;;;;;;;;;;;;25.78;63.39;101401.22;5035078;28;19916;-85
2022/07/02 01:16:43;;;;;;;;;;;;;;;25.78;63.33;101390.50;5035003;28;19920;-85
2022/07/02 01:19:08;;;;;;;;;;;;;;;25.77;63.52;101397.66;5050563;28;19919;-84
2022/07/02 01:21:33;;;;;;;;;;;;;;;25.79;63.46;101395.00;5034633;28;20311;-85
2022/07/02 01:23:59;;;;;;;;;;;;;;;25.78;63.32;101385.16;5053481;28;19909;-85
2022/07/02 01:26:24;;;;;;;;;;;;;;;25.77;63.47;101386.94;5027982;28;20302;-85
2022/07/02 01:28:50;;;;;;;;;;;;;;;25.76;63.18;101384.25;5052253;28;19967;-85
2022/07/02 01:31:15;;;;;;;;;;;;;;;25.75;63.25;101383.38;5048029;28;19925;-84
2022/07/02 01:33:40;;;;;;;;;;;;;;;25.77;63.23;101383.41;5053257;28;19977;-85
2022/07/02 01:36:06;;;;;;;;;;;;;;;25.77;62.97;101396.78;5049716;28;20312;-84
2022/07/02 01:38:31;;;;;;;;;;;;;;;25.74;63.10;101395.00;5046879;28;20516;-85
2022/07/02 01:41:38;;;;;;;;;;;;;;;25.74;63.03;101395.00;5048405;28;19947;-85
2022/07/02 01:43:42;;;;;;;;;;;;;;;25.74;62.90;101395.00;5046831;28;20430;-84
2022/07/02 01:46:08;;;;;;;;;;;;;;;25.73;63.13;101395.88;5038829;28;19992;-84
2022/07/02 01:48:33;;;;;;;;;;;;;;;25.73;63.01;101401.22;5050755;28;19913;-85
2022/07/02 01:50:58;;;;;;;;;;;;;;;25.73;62.71;101394.97;5047776;28;19971;-84
2022/07/02 01:53:24;;;;;;;;;;;;;;;25.72;62.89;101395.88;5048913;28;19963;-84
2022/07/02 01:55:49;;;;;;;;;;;;;;;25.70;62.67;101392.31;5051689;28;20629;-83
2022/07/02 01:58:15;;;;;;;;;;;;;;;25.72;62.63;101401.25;5052752;28;20372;-83
2022/07/02 02:00:40;;;;;;;;;;;;;;;25.72;62.36;101398.56;5044897;28;19913;-84
2022/07/02 02:03:05;;;;;;;;;;;;;;;25.70;62.73;101392.31;5050291;28;20450;-84
2022/07/02 02:05:31;;;;;;;;;;;;;;;25.72;62.25;101398.56;5050561;28;19913;-84
2022/07/02 02:07:56;;;;;;;;;;;;;;;25.68;62.30;101404.78;5032242;28;19912;-83
2022/07/02 02:10:22;;;;;;;;;;;;;;;25.68;62.44;101403.00;5051647;28;19920;-83
2022/07/02 02:12:47;;;;;;;;;;;;;;;25.66;62.42;101406.56;5013189;28;19913;-83
2022/07/02 02:15:13;;;;;;;;;;;;;;;25.67;62.26;101409.22;5045688;28;19913;-84
2022/07/02 02:17:38;;;;;;;;;;;;;;;25.66;62.36;101411.94;5051203;28;20303;-84
2022/07/02 02:20:04;;;;;;;;;;;;;;;25.65;62.41;101410.13;5032649;28;20359;-84
2022/07/02 02:22:29;;;;;;;;;;;;;;;25.65;62.42;101407.44;5050205;28;20344;-84
2022/07/02 02:24:54;;;;;;;;;;;;;;;25.66;62.07;101411.94;5051419;28;20430;-84
2022/07/02 02:27:20;;;;;;;;;;;;;;;25.64;62.24;101411.03;5051204;28;20295;-84
2022/07/02 02:29:45;;;;;;;;;;;;;;;25.64;62.36;101422.59;5044808;28;19971;-85
2022/07/02 02:32:11;;;;;;;;;;;;;;;25.64;62.19;101424.41;5034495;28;20300;-84
2022/07/02 02:34:36;;;;;;;;;;;;;;;25.63;62.19;101426.16;5046522;28;20038;-85
2022/07/02 02:37:01;;;;;;;;;;;;;;;25.60;61.82;101432.41;5051180;28;19917;-85
2022/07/02 02:39:27;;;;;;;;;;;;;;;25.62;61.89;101429.75;5050696;28;19920;-84
2022/07/02 02:41:52;;;;;;;;;;;;;;;25.61;61.79;101422.59;5033156;28;19970;-85
2022/07/02 02:44:18;;;;;;;;;;;;;;;25.60;61.73;101437.75;5051956;28;19915;-84
2022/07/02 02:46:43;;;;;;;;;;;;;;;25.60;61.69;101431.50;5046244;28;20279;-84
2022/07/02 02:49:09;;;;;;;;;;;;;;;25.60;61.83;101439.53;5032047;28;20338;-84
2022/07/02 02:51:34;;;;;;;;;;;;;;;25.57;61.80;101432.41;5026463;28;20323;-83
2022/07/02 02:54:00;;;;;;;;;;;;;;;25.57;61.86;101442.22;5051526;28;19927;-84
2022/07/02 02:56:25;;;;;;;;;;;;;;;25.58;62.13;101444.88;5051227;28;20002;-84
2022/07/02 02:58:50;;;;;;;;;;;;;;;25.58;61.83;101447.56;5045837;28;20509;-84
2022/07/02 03:01:16;;;;;;;;;;;;;;;25.57;61.72;101440.44;5049263;28;20281;-84
2022/07/02 03:03:41;;;;;;;;;;;;;;;25.57;61.88;101443.09;5049168;28;20370;-83
2022/07/02 03:06:07;;;;;;;;;;;;;;;25.55;62.02;101439.53;5032723;28;19913;-84
2022/07/02 03:08:32;;;;;;;;;;;;;;;25.58;61.83;101438.63;5050236;28;19916;-84
2022/07/02 03:10:58;;;;;;;;;;;;;;;25.56;61.73;101446.66;5033606;28;20383;-84
2022/07/02 03:13:23;;;;;;;;;;;;;;;25.52;62.21;101452.00;5033516;28;19912;-84
2022/07/02 03:15:49;;;;;;;;;;;;;;;25.54;62.04;101447.53;5033419;28;20412;-85
2022/07/02 03:18:15;;;;;;;;;;;;;;;25.53;61.83;101443.09;5027666;28;19908;-84
2022/07/02 03:20:40;;;;;;;;;;;;;;;25.50;62.05;101449.31;5050736;28;19909;-85
2022/07/02 03:23:06;;;;;;;;;;;;;;;25.51;62.04;101450.22;5016970;28;19912;-84
2022/07/02 03:25:32;;;;;;;;;;;;;;;25.49;62.20;101452.88;5029509;28;19913;-83
2022/07/02 03:27:57;;;;;;;;;;;;;;;25.49;61.93;101452.88;5015205;28;19912;-84
2022/07/02 03:30:22;;;;;;;;;;;;;;;25.48;61.87;101459.09;5049526;28;19913;-83
2022/07/02 03:32:48;;;;;;;;;;;;;;;25.50;62.00;101453.75;5024004;28;19920;-83
2022/07/02 03:35:13;;;;;;;;;;;;;;;25.49;62.00;101465.38;5040338;28;19927;-83
2022/07/02 03:37:39;;;;;;;;;;;;;;;25.48;62.18;101459.09;5028006;28;20300;-84
2022/07/02 03:40:05;;;;;;;;;;;;;;;25.49;61.85;101465.38;5023343;28;19913;-83
2022/07/02 03:42:30;;;;;;;;;;;;;;;25.48;61.82;101474.25;5023449;28;19920;-83
2022/07/02 03:44:55;;;;;;;;;;;;;;;25.47;61.79;101475.16;5048757;28;19944;-84
2022/07/02 03:47:21;;;;;;;;;;;;;;;25.47;61.73;101483.19;5045415;28;19947;-84
2022/07/02 03:49:47;;;;;;;;;;;;;;;25.45;61.98;101474.25;5017797;28;19917;-83
2022/07/02 03:52:12;;;;;;;;;;;;;;;25.45;61.73;101475.16;5030600;28;19916;-83
2022/07/02 03:54:38;;;;;;;;;;;;;;;25.46;61.95;101471.56;5032974;28;19971;-83
2022/07/02 03:57:03;;;;;;;;;;;;;;;25.46;61.92;101478.72;5050970;28;20464;-84
2022/07/02 03:59:29;;;;;;;;;;;;;;;25.46;61.88;101476.03;5030052;28;20372;-83
2022/07/02 04:01:54;;;;;;;;;;;;;;;25.41;61.78;101473.34;5046460;28;19908;-83
2022/07/02 04:04:19;;;;;;;;;;;;;;;25.41;62.11;101476.03;5026279;28;19912;-82
2022/07/02 04:06:45;;;;;;;;;;;;;;;25.41;62.12;101485.84;5044464;28;19948;-83
2022/07/02 04:09:10;;;;;;;;;;;;;;;25.43;61.82;101481.38;5050648;28;20003;-83
2022/07/02 04:11:36;;;;;;;;;;;;;;;25.39;62.21;101478.69;5038877;28;19921;-83
2022/07/02 04:14:01;;;;;;;;;;;;;;;25.41;61.91;101481.38;5049389;28;20353;-83
2022/07/02 04:16:26;;;;;;;;;;;;;;;25.41;62.00;101478.69;5032963;28;19919;-83
2022/07/02 04:18:52;;;;;;;;;;;;;;;25.40;61.96;101476.94;5049465;28;19919;-84
2022/07/02 04:21:17;;;;;;;;;;;;;;;25.41;61.88;101472.47;5049605;28;19912;-83
2022/07/02 04:23:43;;;;;;;;;;;;;;;25.40;61.93;101471.59;5004303;28;19972;-84
2022/07/02 04:26:08;;;;;;;;;;;;;;;25.37;62.06;101475.09;5020084;28;19912;-83
2022/07/02 04:28:34;;;;;;;;;;;;;;;25.38;62.29;101476.03;5045825;28;20601;-83
2022/07/02 04:30:59;;;;;;;;;;;;;;;25.37;62.26;101479.56;5048076;28;19908;-83
2022/07/02 04:33:24;;;;;;;;;;;;;;;25.36;62.56;101475.13;5033835;28;19960;-83
2022/07/02 04:35:50;;;;;;;;;;;;;;;25.39;62.21;101486.72;5051619;28;20379;-82
2022/07/02 04:38:16;;;;;;;;;;;;;;;25.36;62.43;101484.03;5053548;28;20335;-82
2022/07/02 04:40:42;;;;;;;;;;;;;;;25.39;62.61;101488.50;5052958;28;20236;-82
2022/07/02 04:43:07;;;;;;;;;;;;;;;25.36;62.52;101486.72;5033414;28;20384;-82
2022/07/02 04:45:33;;;;;;;;;;;;;;;25.37;62.62;101491.16;5037118;28;19913;-83
2022/07/02 04:47:58;;;;;;;;;;;;;;;25.37;62.67;101484.91;5033119;28;19919;-82
2022/07/02 04:50:24;;;;;;;;;;;;;;;25.34;62.72;101491.16;5054037;28;20012;-81
2022/07/02 04:52:49;;;;;;;;;;;;;;;25.36;62.78;101488.50;5047674;28;19963;-81
2022/07/02 04:55:15;;;;;;;;;;;;;;;25.37;62.84;101493.81;5049505;28;19923;-81
2022/07/02 04:57:40;;;;;;;;;;;;;;;25.37;63.13;101500.97;5052643;28;20307;-81
2022/07/02 05:00:06;;;;;;;;;;;;;;;25.34;62.91;101503.63;5051759;28;20113;-81
2022/07/02 05:02:32;;;;;;;;;;;;;;;25.34;63.20;101508.97;5050229;28;20364;-80
2022/07/02 05:04:57;;;;;;;;;;;;;;;25.33;63.12;101508.06;5034809;28;19912;-81
2022/07/02 05:07:23;;;;;;;;;;;;;;;25.27;63.03;101509.81;5034810;28;19908;-80
2022/07/02 05:09:48;;;;;;;;;;;;;;;25.28;63.47;101516.97;5051658;28;19916;-82
2022/07/02 05:12:14;;;;;;;;;;;;;;;25.27;63.34;101509.81;5051526;28;19924;-82
2022/07/02 05:14:39;;;;;;;;;;;;;;;25.32;63.38;101508.97;5017990;28;19913;-80
2022/07/02 05:17:04;;;;;;;;;;;;;;;25.27;63.20;101507.16;5051695;28;19921;-81
2022/07/02 05:19:30;;;;;;;;;;;;;;;25.24;63.45;101512.50;5052634;28;19912;-81
2022/07/02 05:21:55;;;;;;;;;;;;;;;25.29;63.13;101516.06;5033662;28;19919;-81
2022/07/02 05:24:21;;;;;;;;;;;;;;;25.29;63.52;101510.72;5045485;28;20004;-81
2022/07/02 05:26:46;;;;;;;;;;;;;;;25.29;63.62;101511.59;5049729;28;20007;-81
2022/07/02 05:29:11;;;;;;;;;;;;;;;25.31;63.30;101512.50;5039735;28;20372;-81
2022/07/02 05:31:37;;;;;;;;;;;;;;;25.33;63.32;101510.75;5051721;28;19931;-81
2022/07/02 05:34:02;;;;;;;;;;;;;;;25.35;63.38;101518.78;5052755;28;19916;-81
2022/07/02 05:36:28;;;;;;;;;;;;;;;25.36;63.42;101523.25;5035462;28;20304;-82
2022/07/02 05:38:53;;;;;;;;;;;;;;;25.29;63.92;101522.31;5040882;28;19912;-81
2022/07/02 05:41:18;;;;;;;;;;;;;;;25.36;63.58;101528.59;5050927;28;19970;-81
2022/07/02 05:43:44;;;;;;;;;;;;;;;25.34;63.81;101520.56;5050715;28;20304;-81
2022/07/02 05:46:10;;;;;;;;;;;;;;;25.33;63.85;101533.91;5049339;28;20400;-81
2022/07/02 05:48:36;;;;;;;;;;;;;;;25.42;63.65;101527.72;5033282;28;20293;-81
2022/07/02 05:51:08;;;;;;;;;;;;;;;25.39;63.32;101526.81;5032080;28;20074;-81
2022/07/02 05:53:33;;;;;;;;;;;;;;;25.47;63.42;101536.69;5027042;28;19965;-80
2022/07/02 05:55:59;;;;;;;;;;;;;;;25.47;63.39;101532.22;5045097;28;19992;-81
2022/07/02 05:58:24;;;;;;;;;;;;;;;25.46;63.52;101532.19;5049041;28;19908;-81
2022/07/02 06:00:49;;;;;;;;;;;;;;;25.47;63.56;101534.00;5044878;28;19920;-81
2022/07/02 06:03:15;;;;;;;;;;;;;;;25.47;63.28;101540.22;5033494;28;19908;-82
2022/07/02 06:08:24;;;;;;;;;;;;;;;25.49;63.15;101548.28;5052535;28;19935;-82
2022/07/02 06:10:50;;;;;;;;;;;;;;;25.42;63.76;101544.69;5052056;28;20347;-81
2022/07/02 06:13:16;;;;;;;;;;;;;;;25.43;63.63;101546.44;5033276;28;20411;-83
2022/07/02 06:15:42;;;;;;;;;;;;;;;25.48;64.14;101543.78;5033592;28;19913;-82
2022/07/02 06:18:07;;;;;;;;;;;;;;;25.41;63.63;101548.22;5052184;28;19979;-81
2022/07/02 06:20:32;;;;;;;;;;;;;;;25.43;63.67;101551.81;5052115;28;20346;-82
2022/07/02 06:22:58;;;;;;;;;;;;;;;25.46;63.78;101543.78;5050497;28;20330;-81
2022/07/02 06:25:23;;;;;;;;;;;;;;;25.47;63.44;101553.59;5050494;28;19917;-82
2022/07/02 06:27:49;;;;;;;;;;;;;;;25.47;63.69;101553.59;5052145;28;20394;-82
2022/07/02 06:30:16;;;;;;;;;;;;;;;25.50;63.69;101556.28;5041025;28;19913;-82
2022/07/02 06:32:41;;;;;;;;;;;;;;;25.47;63.79;101558.06;5049832;28;19920;-82
2022/07/02 06:35:07;;;;;;;;;;;;;;;25.55;63.90;101557.22;5052101;28;20354;-82
2022/07/02 06:37:33;;;;;;;;;;;;;;;25.52;63.61;101557.19;5049163;28;19948;-82
2022/07/02 06:39:58;;;;;;;;;;;;;;;25.51;64.00;101557.19;5034182;28;19947;-82
2022/07/02 06:42:26;;;;;;;;;;;;;;;25.55;63.72;101564.34;5033743;28;19961;-82
2022/07/02 06:44:52;;;;;;;;;;;;;;;25.56;63.39;101568.81;5051587;28;19908;-83
2022/07/02 06:47:18;;;;;;;;;;;;;;;25.55;63.63;101567.91;5033384;28;19913;-83
2022/07/02 06:49:44;;;;;;;;;;;;;;;25.52;63.78;101565.22;5030767;28;19927;-83
2022/07/02 06:52:09;;;;;;;;;;;;;;;25.49;64.12;101564.31;5031637;28;19919;-81
2022/07/02 06:54:35;;;;;;;;;;;;;;;25.58;63.61;101556.34;5031221;28;19909;-82
2022/07/02 06:57:01;;;;;;;;;;;;;;;25.60;63.57;101560.78;5054095;28;19935;-83
2022/07/02 06:59:26;;;;;;;;;;;;;;;25.66;63.60;101564.41;5027193;28;19909;-81
2022/07/02 07:01:52;;;;;;;;;;;;;;;25.64;63.36;101563.50;5033177;28;19947;-81
2022/07/02 07:04:17;;;;;;;;;;;;;;;25.64;63.59;101566.19;5045248;28;20393;-81
2022/07/02 07:09:11;;;;;;;;;;;;;;;25.68;63.68;101570.66;5051969;28;19970;-82
2022/07/02 07:11:36;;;;;;;;;;;;;;;25.67;63.57;101574.19;5046767;28;19944;-82
2022/07/02 07:14:02;;;;;;;;;;;;;;;25.64;63.70;101575.09;5029528;28;19909;-82
2022/07/02 07:16:27;;;;;;;;;;;;;;;25.66;63.51;101569.75;5048233;28;19991;-80
2022/07/02 07:21:18;;;;;;;;;;;;;;;25.65;63.43;101578.66;5051573;28;19984;-81
2022/07/02 07:23:43;;;;;;;;;;;;;;;25.66;63.42;101583.13;5059745;28;19909;-81
2022/07/02 07:26:09;;;;;;;;;;;;;;;25.67;63.57;101580.44;5051349;28;20429;-81
2022/07/02 07:28:34;;;;;;;;;;;;;;;25.70;63.43;101582.25;5051148;28;20303;-81
2022/07/02 07:31:00;;;;;;;;;;;;;;;25.67;63.32;101584.91;5051085;28;19913;-82
2022/07/02 07:33:25;;;;;;;;;;;;;;;25.69;63.36;101589.38;5026644;28;19921;-82
2022/07/02 07:35:51;;;;;;;;;;;;;;;25.67;63.44;101585.78;5051811;28;20411;-82
2022/07/02 07:38:16;;;;;;;;;;;;;;;25.70;63.25;101585.81;5053363;28;19924;-80
2022/07/02 07:40:41;;;;;;;;;;;;;;;25.71;63.53;101586.72;5031779;28;19908;-82
2022/07/02 07:43:07;;;;;;;;;;;;;;;25.70;63.30;101591.16;5049166;28;19920;-82
2022/07/02 07:45:32;;;;;;;;;;;;;;;25.72;63.36;101580.47;5043230;28;19909;-82
2022/07/02 07:47:58;;;;;;;;;;;;;;;25.71;63.43;101589.38;5044098;28;19912;-81
2022/07/02 07:50:23;;;;;;;;;;;;;;;25.72;63.34;101593.84;5037593;28;20003;-81
2022/07/02 07:52:49;;;;;;;;;;;;;;;25.68;63.32;101592.06;5027708;28;19994;-82
2022/07/02 07:55:15;;;;;;;;;;;;;;;25.70;62.95;101593.84;5037388;28;19916;-82
2022/07/02 07:57:40;;;;;;;;;;;;;;;25.71;63.36;101592.06;5055664;28;19916;-81
2022/07/02 08:00:06;;;;;;;;;;;;;;;25.66;63.24;101585.81;5050975;28;20476;-81
2022/07/02 08:02:31;;;;;;;;;;;;;;;25.66;63.56;101586.69;5051109;28;19966;-80
2022/07/02 08:04:57;;;;;;;;;;;;;;;25.63;63.67;101581.31;5051178;28;19966;-80
2022/07/02 08:07:22;;;;;;;;;;;;;;;25.66;63.81;101593.81;5055066;28;19908;-80
2022/07/02 08:09:52;;;;;;;;;;;;;;;25.63;63.63;101585.78;5054919;28;19920;-81
2022/07/02 08:12:21;;;;;;;;;;;;;;;25.61;63.78;101585.75;5054990;28;19991;-81
2022/07/02 08:14:46;;;;;;;;;;;;;;;25.62;63.97;101587.56;5054576;28;20002;-82
2022/07/02 08:17:11;;;;;;;;;;;;;;;25.62;64.10;101592.03;5057588;28;19909;-82
2022/07/02 08:19:37;;;;;;;;;;;;;;;25.63;63.78;101596.47;5054611;28;19912;-82
2022/07/02 08:22:02;;;;;;;;;;;;;;;25.60;64.10;101592.00;5054919;28;20335;-82
2022/07/02 08:24:29;;;;;;;;;;;;;;;25.61;63.83;101596.44;5055024;28;19909;-81
2022/07/02 08:26:54;;;;;;;;;;;;;;;25.65;63.63;101597.38;5031610;28;19995;-82
2022/07/02 08:29:20;;;;;;;;;;;;;;;25.63;63.73;101597.34;5052177;28;20069;-81
2022/07/02 08:31:45;;;;;;;;;;;;;;;25.63;63.96;101602.72;5053660;28;19909;-80
2022/07/02 08:34:11;;;;;;;;;;;;;;;25.64;63.79;101601.84;5035991;28;19913;-82
2022/07/02 08:36:36;;;;;;;;;;;;;;;25.66;63.67;101593.81;5052869;28;20281;-81
2022/07/02 08:39:02;;;;;;;;;;;;;;;25.66;63.61;101594.72;5053537;28;19915;-81
2022/07/02 08:41:27;;;;;;;;;;;;;;;25.67;63.78;101599.16;5018485;28;20002;-81
2022/07/02 08:43:53;;;;;;;;;;;;;;;25.66;64.00;101601.84;5041921;28;19932;-82
2022/07/02 08:46:18;;;;;;;;;;;;;;;25.68;63.68;101595.63;5052623;28;19940;-81
2022/07/02 08:48:44;;;;;;;;;;;;;;;25.70;64.05;101601.88;5054235;28;19920;-81
2022/07/02 08:51:10;;;;;;;;;;;;;;;25.71;63.83;101605.44;5048614;28;19963;-81
2022/07/02 08:53:35;;;;;;;;;;;;;;;25.67;63.76;101603.63;5052675;28;20380;-82
2022/07/02 08:56:01;;;;;;;;;;;;;;;25.68;63.80;101611.66;5036273;28;19915;-81
2022/07/02 08:58:26;;;;;;;;;;;;;;;25.69;63.68;101608.09;5048123;28;20547;-81
2022/07/02 09:00:52;;;;;;;;;;;;;;;25.70;63.56;101603.66;5054329;28;19912;-80
2022/07/02 09:03:18;;;;;;;;;;;;;;;25.71;63.59;101606.31;5046241;28;19925;-81
2022/07/02 09:05:44;;;;;;;;;;;;;;;25.72;63.38;101602.78;5050211;28;20396;-82
2022/07/02 09:08:09;;;;;;;;;;;;;;;25.74;63.85;101610.81;5025700;28;19916;-82
2022/07/02 09:10:35;;;;;;;;;;;;;;;25.72;63.53;101610.81;5052212;28;19921;-81
2022/07/02 09:13:00;;;;;;;;;;;;;;;25.71;63.56;101608.09;5032325;28;20308;-81
2022/07/02 09:15:26;;;;;;;;;;;;;;;25.73;63.58;101612.56;5051767;28;20376;-82
2022/07/02 09:17:51;;;;;;;;;;;;;;;25.73;63.89;101611.69;5027963;28;20355;-82
2022/07/02 09:20:16;;;;;;;;;;;;;;;25.73;63.81;101617.03;5039481;28;20587;-82
2022/07/02 09:22:43;;;;;;;;;;;;;;;25.75;63.60;101608.13;5053266;28;19915;-82
2022/07/02 09:25:16;;;;;;;;;;;;;;;25.74;63.46;101603.69;5042997;28;19909;-82
2022/07/02 09:27:42;;;;;;;;;;;;;;;25.74;63.64;101614.38;5052347;28;19908;-82
2022/07/02 09:30:08;;;;;;;;;;;;;;;25.73;63.60;101614.34;5035842;28;20015;-82
2022/07/02 09:32:39;;;;;;;;;;;;;;;25.74;63.83;101613.50;5035180;28;19908;-81
2022/07/02 09:35:05;;;;;;;;;;;;;;;25.77;63.74;101608.13;5033716;28;19936;-82
2022/07/02 09:37:30;;;;;;;;;;;;;;;25.77;63.44;101605.47;5045359;28;19971;-82
2022/07/02 09:39:59;;;;;;;;;;;;;;;25.80;63.51;101609.06;5052288;28;19913;-82
2022/07/02 09:42:25;;;;;;;;;;;;;;;25.80;63.47;101605.47;5036222;28;19915;-82
2022/07/02 09:44:54;;;;;;;;;;;;;;;25.82;63.13;101608.16;5052888;28;19965;-82
2022/07/02 09:47:36;;;;;;;;;;;;;;;25.78;63.30;101607.25;5051819;28;19915;-81
2022/07/02 09:50:04;;;;;;;;;;;;;;;25.78;63.72;101601.88;5030280;28;20001;-81
2022/07/02 09:52:33;;;;;;;;;;;;;;;25.79;63.39;101604.56;5045343;28;19908;-82
2022/07/02 09:54:59;;;;;;;;;;;;;;;25.79;63.58;101606.38;5051395;28;19916;-82
2022/07/02 09:57:26;;;;;;;;;;;;;;;25.80;63.79;101610.81;5041882;28;19909;-82
2022/07/02 09:59:51;;;;;;;;;;;;;;;25.75;63.65;101607.25;5027780;28;19974;-83
2022/07/02 10:02:22;;;;;;;;;;;;;;;25.78;63.63;101612.59;5051819;28;20594;-82
2022/07/02 10:04:49;;;;;;;;;;;;;;;25.83;63.66;101613.53;5055715;28;19916;-83
2022/07/02 10:07:15;;;;;;;;;;;;;;;25.84;63.56;101617.97;5022111;28;19912;-83
2022/07/02 10:09:42;;;;;;;;;;;;;;;25.84;63.62;101617.97;5036539;28;19943;-83
2022/07/02 10:12:07;;;;;;;;;;;;;;;25.82;63.79;101621.53;5033975;28;20410;-82
2022/07/02 10:14:34;;;;;;;;;;;;;;;25.84;63.64;101615.28;5031920;28;19912;-82
2022/07/02 10:16:59;;;;;;;;;;;;;;;25.86;63.72;101607.28;5041574;28;19908;-83
2022/07/02 10:19:25;;;;;;;;;;;;;;;25.86;63.85;101610.84;5050425;28;20004;-83
2022/07/02 10:21:50;;;;;;;;;;;;;;;25.85;63.79;101614.44;5049828;28;19931;-83
2022/07/02 10:24:15;;;;;;;;;;;;;;;25.89;64.01;101616.25;5051386;28;20419;-82
2022/07/02 10:26:41;;;;;;;;;;;;;;;25.87;63.72;101612.66;5008445;28;20322;-82
2022/07/02 10:29:06;;;;;;;;;;;;;;;25.89;63.84;101624.28;5029849;28;20086;-82
2022/07/02 10:31:34;;;;;;;;;;;;;;;25.88;64.06;101622.44;5051467;28;20360;-81
2022/07/02 10:34:00;;;;;;;;;;;;;;;25.88;63.74;101610.88;5018761;28;20379;-83
2022/07/02 10:36:25;;;;;;;;;;;;;;;25.90;63.99;101614.47;5049590;28;19916;-82
2022/07/02 10:38:58;;;;;;;;;;;;;;;25.91;63.56;101617.16;5051114;28;20345;-84
2022/07/02 10:41:30;;;;;;;;;;;;;;;25.95;63.75;101615.38;5016841;28;19908;-83
2022/07/02 10:43:56;;;;;;;;;;;;;;;25.96;63.76;101618.06;5051916;28;19915;-84
2022/07/02 10:46:22;;;;;;;;;;;;;;;25.92;63.74;101613.59;5051618;28;19913;-85
2022/07/02 10:48:47;;;;;;;;;;;;;;;25.94;63.51;101613.59;5034298;28;19997;-85
2022/07/02 10:51:19;;;;;;;;;;;;;;;25.95;63.83;101615.38;5046717;28;20362;-83
2022/07/02 10:53:51;;;;;;;;;;;;;;;25.95;63.67;101616.28;5046692;28;19916;-83
2022/07/02 10:56:17;;;;;;;;;;;;;;;25.96;63.71;101623.41;5040247;28;19983;-84
2022/07/02 10:58:42;;;;;;;;;;;;;;;25.96;63.82;101611.81;5037449;28;19999;-83
2022/07/02 11:01:09;;;;;;;;;;;;;;;25.98;63.84;101620.75;5050845;28;19951;-84
2022/07/02 11:03:34;;;;;;;;;;;;;;;26.00;63.66;101621.66;5050444;28;19909;-84
2022/07/02 11:06:01;;;;;;;;;;;;;;;25.98;63.73;101623.44;5030623;28;19909;-83
2022/07/02 11:08:37;;;;;;;;;;;;;;;26.01;63.61;101626.09;5021770;28;19913;-83
2022/07/02 11:11:03;;;;;;;;;;;;;;;25.97;64.26;101626.97;5028769;28;19916;-83
2022/07/02 11:13:38;;;;;;;;;;;;;;;26.02;63.83;101621.66;5024482;28;19908;-83
2022/07/02 11:16:25;;;;;;;;;;;;;;;26.03;63.94;101621.66;5046272;28;20358;-83
2022/07/02 11:18:52;;;;;;;;;;;;;;;26.01;63.83;101623.44;5019133;28;19913;-83
2022/07/02 11:21:18;;;;;;;;;;;;;;;26.03;63.91;101618.97;5019384;28;19924;-83
2022/07/02 11:23:44;;;;;;;;;;;;;;;26.02;63.80;101625.22;5051093;28;19916;-83
2022/07/02 11:26:13;;;;;;;;;;;;;;;26.08;63.71;101616.34;5031115;28;19917;-84
2022/07/02 11:28:40;;;;;;;;;;;;;;;26.06;63.74;101623.47;5029390;28;19918;-83
2022/07/02 11:31:06;;;;;;;;;;;;;;;26.06;63.83;101624.34;5054595;28;20369;-84
2022/07/02 11:33:32;;;;;;;;;;;;;;;26.06;63.46;101620.78;5013283;28;19908;-84
2022/07/02 11:35:58;;;;;;;;;;;;;;;26.11;63.51;101627.03;5043178;28;19988;-84
2022/07/02 11:38:23;;;;;;;;;;;;;;;26.10;63.71;101628.84;5016696;28;19991;-83
2022/07/02 11:40:49;;;;;;;;;;;;;;;26.11;63.36;101627.94;5009545;28;19913;-82
2022/07/02 11:43:15;;;;;;;;;;;;;;;26.13;63.19;101627.94;5023460;28;19920;-83
2022/07/02 11:45:47;;;;;;;;;;;;;;;26.12;63.52;101620.78;5050855;28;19908;-82
2022/07/02 11:48:19;;;;;;;;;;;;;;;26.12;63.37;101621.72;5031210;28;19916;-82
2022/07/02 11:50:45;;;;;;;;;;;;;;;26.16;63.28;101625.25;5039029;28;20368;-81
2022/07/02 11:53:10;;;;;;;;;;;;;;;26.14;63.27;101619.00;5044835;28;19932;-81
2022/07/02 11:55:36;;;;;;;;;;;;;;;26.16;63.26;101620.84;5046578;28;20426;-81
2022/07/02 11:58:01;;;;;;;;;;;;;;;26.14;63.19;101624.38;5045928;28;19917;-81
2022/07/02 12:00:35;;;;;;;;;;;;;;;26.14;63.09;101619.00;5036549;28;19920;-81
2022/07/02 12:03:10;;;;;;;;;;;;;;;26.17;63.11;101625.28;5019039;28;20403;-81
2022/07/02 12:05:35;;;;;;;;;;;;;;;26.09;63.60;101623.47;5037177;28;19924;-81
2022/07/02 12:08:01;;;;;;;;;;;;;;;26.13;63.21;101622.59;5048611;28;19913;-81
2022/07/02 12:10:26;;;;;;;;;;;;;;;26.15;63.20;101623.50;5048992;28;19919;-80
2022/07/02 12:12:52;;;;;;;;;;;;;;;26.19;63.35;101627.97;5041147;28;19908;-80
2022/07/02 12:15:17;;;;;;;;;;;;;;;26.25;62.95;101621.75;5030312;28;19947;-82
2022/07/02 12:17:47;;;;;;;;;;;;;;;26.20;63.47;101619.03;5050474;28;19908;-80
2022/07/02 12:20:12;;;;;;;;;;;;;;;26.24;63.05;101622.63;5050588;28;20368;-81
2022/07/02 12:22:38;;;;;;;;;;;;;;;26.21;63.35;101620.84;5045436;28;19924;-81
2022/07/02 12:25:05;;;;;;;;;;;;;;;26.17;63.04;101624.41;5032942;28;19909;-81
2022/07/02 12:27:34;;;;;;;;;;;;;;;26.11;63.64;101622.59;5047548;28;19971;-80
2022/07/02 12:30:09;;;;;;;;;;;;;;;26.14;63.58;101619.94;5033575;28;19951;-80
2022/07/02 12:32:39;;;;;;;;;;;;;;;26.14;63.69;101617.25;5044843;28;20348;-80
2022/07/02 12:35:08;;;;;;;;;;;;;;;26.24;63.35;101622.63;5035921;28;19909;-80
2022/07/02 12:37:37;;;;;;;;;;;;;;;26.21;63.86;101618.16;5031266;28;19920;-82
2022/07/02 12:40:03;;;;;;;;;;;;;;;26.30;63.27;101622.66;5046188;28;19912;-81